sensor_id;sensor_type;location;lat;lon;timestamp;temperature;humidity
5364;DHT22;77171;41.408;2.158;2024-03-23T00:53:45;18.70;99.90
5364;DHT22;77171;41.408;2.158;2024-03-23T00:56:12;18.70;99.90
5364;DHT22;77171;41.408;2.158;2024-03-23T00:58:39;18.60;99.90
5364;DHT22;77171;41.408;2.158;2024-03-23T01:01:06;18.70;99.90
5364;DHT22;77171;41.408;2.158;2024-03-23T01:03:34;18.60;99.90
5364;DHT22;77171;41.408;2.158;2024-03-23T01:06:01;18.60;99.90
5364;DHT22;77171;41.408;2.158;2024-03-23T01:08:30;18.60;99.90
5364;DHT22;77171;41.408;2.158;2024-03-23T01:10:58;18.60;99.90
5364;DHT22;77171;41.408;2.158;2024-03-23T01:13:26;18.50;99.90
5364;DHT22;77171;41.408;2.158;2024-03-23T01:15:54;18.40;99.90
5364;DHT22;77171;41.408;2.158;2024-03-23T01:18:23;18.30;99.90
5364;DHT22;77171;41.408;2.158;2024-03-23T01:20:50;18.10;99.90
5364;DHT22;77171;41.408;2.158;2024-03-23T01:23:18;17.90;99.90
5364;DHT22;77171;41.408;2.158;2024-03-23T01:25:53;18.00;99.90
5364;DHT22;77171;41.408;2.158;2024-03-23T01:28:21;18.10;99.90
5364;DHT22;77171;41.408;2.158;2024-03-23T01:30:48;18.10;99.90
5364;DHT22;77171;41.408;2.158;2024-03-23T01:33:16;18.10;99.90
5364;DHT22;77171;41.408;2.158;2024-03-23T01:35:43;18.10;99.90
5364;DHT22;77171;41.408;2.158;2024-03-23T01:38:11;18.10;99.90
5364;DHT22;77171;41.408;2.158;2024-03-23T01:40:38;18.10;99.90
5364;DHT22;77171;41.408;2.158;2024-03-23T01:43:07;18.20;99.90
5364;DHT22;77171;41.408;2.158;2024-03-23T01:45:35;18.00;99.90
5364;DHT22;77171;41.408;2.158;2024-03-23T01:48:03;18.00;99.90
5364;DHT22;77171;41.408;2.158;2024-03-23T01:50:31;17.70;99.90
5364;DHT22;77171;41.408;2.158;2024-03-23T01:53:01;17.80;99.90
5364;DHT22;77171;41.408;2.158;2024-03-23T01:55:29;17.80;99.90
5364;DHT22;77171;41.408;2.158;2024-03-23T01:57:57;18.20;99.90
5364;DHT22;77171;41.408;2.158;2024-03-23T02:00:25;18.20;99.90
5364;DHT22;77171;41.408;2.158;2024-03-23T02:02:54;18.30;99.90
5364;DHT22;77171;41.408;2.158;2024-03-23T02:05:21;18.10;99.90
5364;DHT22;77171;41.408;2.158;2024-03-23T02:07:51;17.90;99.90
5364;DHT22;77171;41.408;2.158;2024-03-23T02:10:18;18.10;99.90
5364;DHT22;77171;41.408;2.158;2024-03-23T02:12:45;18.20;99.90
5364;DHT22;77171;41.408;2.158;2024-03-23T02:15:13;18.00;99.90
5364;DHT22;77171;41.408;2.158;2024-03-23T02:17:42;18.10;99.90
5364;DHT22;77171;41.408;2.158;2024-03-23T02:20:12;18.10;99.90
5364;DHT22;77171;41.408;2.158;2024-03-23T02:22:40;18.10;99.90
5364;DHT22;77171;41.408;2.158;2024-03-23T02:25:08;17.90;99.90
5364;DHT22;77171;41.408;2.158;2024-03-23T02:27:36;17.70;99.90
5364;DHT22;77171;41.408;2.158;2024-03-23T02:30:06;17.60;99.90
5364;DHT22;77171;41.408;2.158;2024-03-23T02:32:35;17.50;99.90
5364;DHT22;77171;41.408;2.158;2024-03-23T02:35:02;17.40;99.90
5364;DHT22;77171;41.408;2.158;2024-03-23T02:37:31;17.70;99.90
5364;DHT22;77171;41.408;2.158;2024-03-23T02:39:58;17.70;99.90
5364;DHT22;77171;41.408;2.158;2024-03-23T02:42:28;17.80;99.90
5364;DHT22;77171;41.408;2.158;2024-03-23T02:44:55;17.70;99.90
5364;DHT22;77171;41.408;2.158;2024-03-23T02:47:23;17.50;99.90
5364;DHT22;77171;41.408;2.158;2024-03-23T02:49:49;17.60;99.90
5364;DHT22;77171;41.408;2.158;2024-03-23T02:52:17;17.80;99.90
5364;DHT22;77171;41.408;2.158;2024-03-23T02:54:44;17.90;99.90
5364;DHT22;77171;41.408;2.158;2024-03-23T02:57:12;17.80;99.90
5364;DHT22;77171;41.408;2.158;2024-03-23T02:59:41;17.70;99.90
5364;DHT22;77171;41.408;2.158;2024-03-23T03:02:09;17.90;99.90
5364;DHT22;77171;41.408;2.158;2024-03-23T03:04:36;17.80;99.90
5364;DHT22;77171;41.408;2.158;2024-03-23T03:07:03;17.90;99.90
5364;DHT22;77171;41.408;2.158;2024-03-23T03:09:30;17.70;99.90
5364;DHT22;77171;41.408;2.158;2024-03-23T03:11:59;17.70;99.90
5364;DHT22;77171;41.408;2.158;2024-03-23T03:14:26;17.90;99.90
5364;DHT22;77171;41.408;2.158;2024-03-23T03:16:56;18.00;99.90
5364;DHT22;77171;41.408;2.158;2024-03-23T03:19:23;18.20;99.90
5364;DHT22;77171;41.408;2.158;2024-03-23T03:21:51;18.20;99.90
5364;DHT22;77171;41.408;2.158;2024-03-23T03:24:18;18.20;99.90
5364;DHT22;77171;41.408;2.158;2024-03-23T03:26:46;17.90;99.90
5364;DHT22;77171;41.408;2.158;2024-03-23T03:29:13;17.80;99.90
5364;DHT22;77171;41.408;2.158;2024-03-23T03:31:41;18.10;99.90
5364;DHT22;77171;41.408;2.158;2024-03-23T03:34:10;17.90;99.90
5364;DHT22;77171;41.408;2.158;2024-03-23T03:36:38;17.60;99.90
5364;DHT22;77171;41.408;2.158;2024-03-23T03:39:05;17.40;99.90
5364;DHT22;77171;41.408;2.158;2024-03-23T03:41:33;17.50;99.90
5364;DHT22;77171;41.408;2.158;2024-03-23T03:44:00;17.40;99.90
5364;DHT22;77171;41.408;2.158;2024-03-23T03:46:29;17.30;99.90
5364;DHT22;77171;41.408;2.158;2024-03-23T03:48:55;17.50;99.90
5364;DHT22;77171;41.408;2.158;2024-03-23T03:51:25;17.60;99.90
5364;DHT22;77171;41.408;2.158;2024-03-23T03:53:52;17.60;99.90
5364;DHT22;77171;41.408;2.158;2024-03-23T03:56:20;17.50;99.90
5364;DHT22;77171;41.408;2.158;2024-03-23T03:58:49;17.60;99.90
5364;DHT22;77171;41.408;2.158;2024-03-23T04:01:17;17.40;99.90
5364;DHT22;77171;41.408;2.158;2024-03-23T04:03:44;17.40;99.90
5364;DHT22;77171;41.408;2.158;2024-03-23T04:06:18;17.70;99.90
5364;DHT22;77171;41.408;2.158;2024-03-23T04:08:47;17.70;99.90
5364;DHT22;77171;41.408;2.158;2024-03-23T04:11:15;17.80;99.90
5364;DHT22;77171;41.408;2.158;2024-03-23T04:13:42;17.60;99.90
5364;DHT22;77171;41.408;2.158;2024-03-23T04:16:10;17.40;99.90
5364;DHT22;77171;41.408;2.158;2024-03-23T04:18:37;17.30;99.90
5364;DHT22;77171;41.408;2.158;2024-03-23T04:21:05;17.60;99.90
5364;DHT22;77171;41.408;2.158;2024-03-23T04:23:33;17.70;99.90
5364;DHT22;77171;41.408;2.158;2024-03-23T04:26:06;17.50;99.90
5364;DHT22;77171;41.408;2.158;2024-03-23T04:28:33;17.50;99.90
5364;DHT22;77171;41.408;2.158;2024-03-23T04:31:03;17.30;99.90
5364;DHT22;77171;41.408;2.158;2024-03-23T04:33:30;17.40;99.90
5364;DHT22;77171;41.408;2.158;2024-03-23T04:35:58;17.60;99.90
5364;DHT22;77171;41.408;2.158;2024-03-23T04:38:25;17.50;99.90
5364;DHT22;77171;41.408;2.158;2024-03-23T04:40:56;17.60;99.90
5364;DHT22;77171;41.408;2.158;2024-03-23T04:43:26;17.60;99.90
5364;DHT22;77171;41.408;2.158;2024-03-23T04:45:54;17.70;99.90
5364;DHT22;77171;41.408;2.158;2024-03-23T04:48:23;17.40;99.90
5364;DHT22;77171;41.408;2.158;2024-03-23T04:50:55;17.40;99.90
5364;DHT22;77171;41.408;2.158;2024-03-23T04:53:24;17.40;99.90
5364;DHT22;77171;41.408;2.158;2024-03-23T04:55:55;17.20;99.90
5364;DHT22;77171;41.408;2.158;2024-03-23T04:58:23;17.10;99.90
5364;DHT22;77171;41.408;2.158;2024-03-23T05:00:55;17.10;99.90
5364;DHT22;77171;41.408;2.158;2024-03-23T05:03:23;17.30;99.90
5364;DHT22;77171;41.408;2.158;2024-03-23T05:05:50;17.30;99.90
5364;DHT22;77171;41.408;2.158;2024-03-23T05:08:18;17.10;99.90
5364;DHT22;77171;41.408;2.158;2024-03-23T05:10:45;17.00;99.90
5364;DHT22;77171;41.408;2.158;2024-03-23T05:13:13;17.20;99.90
5364;DHT22;77171;41.408;2.158;2024-03-23T05:15:40;17.30;99.90
5364;DHT22;77171;41.408;2.158;2024-03-23T05:18:09;17.30;99.90
5364;DHT22;77171;41.408;2.158;2024-03-23T05:20:37;17.20;99.90
5364;DHT22;77171;41.408;2.158;2024-03-23T05:23:04;17.30;99.90
5364;DHT22;77171;41.408;2.158;2024-03-23T05:25:32;17.00;99.90
5364;DHT22;77171;41.408;2.158;2024-03-23T05:28:00;16.80;99.90
5364;DHT22;77171;41.408;2.158;2024-03-23T05:30:28;16.90;99.90
5364;DHT22;77171;41.408;2.158;2024-03-23T05:32:55;17.20;99.90
5364;DHT22;77171;41.408;2.158;2024-03-23T05:35:25;17.40;99.90
5364;DHT22;77171;41.408;2.158;2024-03-23T05:37:52;17.30;99.90
5364;DHT22;77171;41.408;2.158;2024-03-23T05:40:20;17.30;99.90
5364;DHT22;77171;41.408;2.158;2024-03-23T05:42:47;17.20;99.90
5364;DHT22;77171;41.408;2.158;2024-03-23T05:45:15;17.40;99.90
5364;DHT22;77171;41.408;2.158;2024-03-23T05:47:45;17.30;99.90
5364;DHT22;77171;41.408;2.158;2024-03-23T05:50:13;17.20;99.90
5364;DHT22;77171;41.408;2.158;2024-03-23T05:52:41;17.00;99.90
5364;DHT22;77171;41.408;2.158;2024-03-23T05:55:10;16.80;99.90
5364;DHT22;77171;41.408;2.158;2024-03-23T05:57:37;16.70;99.90
5364;DHT22;77171;41.408;2.158;2024-03-23T06:00:07;16.80;99.90
5364;DHT22;77171;41.408;2.158;2024-03-23T06:02:38;16.70;99.90
5364;DHT22;77171;41.408;2.158;2024-03-23T06:05:06;17.00;99.90
5364;DHT22;77171;41.408;2.158;2024-03-23T06:07:33;17.30;99.90
5364;DHT22;77171;41.408;2.158;2024-03-23T06:10:04;17.30;99.90
5364;DHT22;77171;41.408;2.158;2024-03-23T06:12:32;17.40;99.90
5364;DHT22;77171;41.408;2.158;2024-03-23T06:15:00;17.40;99.90
5364;DHT22;77171;41.408;2.158;2024-03-23T06:17:27;17.40;99.90
5364;DHT22;77171;41.408;2.158;2024-03-23T06:19:55;17.30;99.90
5364;DHT22;77171;41.408;2.158;2024-03-23T06:22:22;17.50;99.90
5364;DHT22;77171;41.408;2.158;2024-03-23T06:24:50;17.30;99.90
5364;DHT22;77171;41.408;2.158;2024-03-23T06:27:18;17.20;99.90
5364;DHT22;77171;41.408;2.158;2024-03-23T06:29:46;17.10;99.90
5364;DHT22;77171;41.408;2.158;2024-03-23T06:32:13;17.00;99.90
5364;DHT22;77171;41.408;2.158;2024-03-23T06:34:42;17.00;99.90
5364;DHT22;77171;41.408;2.158;2024-03-23T06:37:09;17.10;99.90
5364;DHT22;77171;41.408;2.158;2024-03-23T06:39:37;17.40;99.90
5364;DHT22;77171;41.408;2.158;2024-03-23T06:42:04;17.70;99.90
5364;DHT22;77171;41.408;2.158;2024-03-23T06:44:35;17.50;99.90
5364;DHT22;77171;41.408;2.158;2024-03-23T06:47:02;17.40;99.90
5364;DHT22;77171;41.408;2.158;2024-03-23T06:49:30;17.60;99.90
5364;DHT22;77171;41.408;2.158;2024-03-23T06:51:58;17.70;99.90
5364;DHT22;77171;41.408;2.158;2024-03-23T06:54:26;17.80;99.90
5364;DHT22;77171;41.408;2.158;2024-03-23T06:56:53;17.80;99.90
5364;DHT22;77171;41.408;2.158;2024-03-23T06:59:21;17.70;99.90
5364;DHT22;77171;41.408;2.158;2024-03-23T07:01:49;17.70;99.90
5364;DHT22;77171;41.408;2.158;2024-03-23T07:04:17;17.50;99.90
5364;DHT22;77171;41.408;2.158;2024-03-23T07:06:45;17.40;99.90
5364;DHT22;77171;41.408;2.158;2024-03-23T07:09:13;17.40;99.90
5364;DHT22;77171;41.408;2.158;2024-03-23T07:11:40;17.30;99.90
5364;DHT22;77171;41.408;2.158;2024-03-23T07:14:08;16.90;99.90
5364;DHT22;77171;41.408;2.158;2024-03-23T07:16:35;17.10;99.90
5364;DHT22;77171;41.408;2.158;2024-03-23T07:19:05;17.30;99.90
5364;DHT22;77171;41.408;2.158;2024-03-23T07:21:32;17.30;99.90
5364;DHT22;77171;41.408;2.158;2024-03-23T07:24:00;17.20;99.90
5364;DHT22;77171;41.408;2.158;2024-03-23T07:26:26;17.30;99.90
5364;DHT22;77171;41.408;2.158;2024-03-23T07:28:54;17.40;99.90
5364;DHT22;77171;41.408;2.158;2024-03-23T07:31:21;17.40;99.90
5364;DHT22;77171;41.408;2.158;2024-03-23T07:33:51;17.50;99.90
5364;DHT22;77171;41.408;2.158;2024-03-23T07:36:19;17.40;99.90
5364;DHT22;77171;41.408;2.158;2024-03-23T07:38:47;17.20;99.90
5364;DHT22;77171;41.408;2.158;2024-03-23T07:41:16;17.10;99.90
5364;DHT22;77171;41.408;2.158;2024-03-23T07:43:45;17.30;99.90
5364;DHT22;77171;41.408;2.158;2024-03-23T07:46:12;17.30;99.90
5364;DHT22;77171;41.408;2.158;2024-03-23T07:48:40;17.20;99.90
5364;DHT22;77171;41.408;2.158;2024-03-23T07:51:10;17.20;99.90
5364;DHT22;77171;41.408;2.158;2024-03-23T07:53:39;17.30;99.90
5364;DHT22;77171;41.408;2.158;2024-03-23T07:56:07;17.40;99.90
5364;DHT22;77171;41.408;2.158;2024-03-23T07:58:36;17.50;99.90
5364;DHT22;77171;41.408;2.158;2024-03-23T08:01:29;17.60;99.90
5364;DHT22;77171;41.408;2.158;2024-03-23T08:03:57;17.70;99.90
5364;DHT22;77171;41.408;2.158;2024-03-23T08:06:24;17.60;99.90
5364;DHT22;77171;41.408;2.158;2024-03-23T08:08:55;17.70;99.90
5364;DHT22;77171;41.408;2.158;2024-03-23T08:11:26;17.60;99.90
5364;DHT22;77171;41.408;2.158;2024-03-23T08:13:54;17.90;99.90
5364;DHT22;77171;41.408;2.158;2024-03-23T08:16:21;18.20;99.90
5364;DHT22;77171;41.408;2.158;2024-03-23T08:18:51;18.40;99.90
5364;DHT22;77171;41.408;2.158;2024-03-23T08:21:18;18.20;99.90
5364;DHT22;77171;41.408;2.158;2024-03-23T08:23:46;18.20;99.90
5364;DHT22;77171;41.408;2.158;2024-03-23T08:26:15;18.00;99.90
5364;DHT22;77171;41.408;2.158;2024-03-23T08:28:44;17.80;99.90
5364;DHT22;77171;41.408;2.158;2024-03-23T08:31:11;17.80;99.90
5364;DHT22;77171;41.408;2.158;2024-03-23T08:33:41;17.80;99.90
5364;DHT22;77171;41.408;2.158;2024-03-23T08:36:10;17.80;99.90
5364;DHT22;77171;41.408;2.158;2024-03-23T08:38:40;17.90;99.90
5364;DHT22;77171;41.408;2.158;2024-03-23T08:41:08;18.10;99.90
5364;DHT22;77171;41.408;2.158;2024-03-23T08:43:39;18.30;99.90
5364;DHT22;77171;41.408;2.158;2024-03-23T08:46:07;18.40;99.90
5364;DHT22;77171;41.408;2.158;2024-03-23T08:48:38;18.50;99.90
5364;DHT22;77171;41.408;2.158;2024-03-23T08:51:06;18.50;99.90
5364;DHT22;77171;41.408;2.158;2024-03-23T08:53:35;18.50;99.90
5364;DHT22;77171;41.408;2.158;2024-03-23T08:56:03;18.40;99.90
5364;DHT22;77171;41.408;2.158;2024-03-23T08:58:32;18.40;99.90
5364;DHT22;77171;41.408;2.158;2024-03-23T09:01:06;18.50;99.90
5364;DHT22;77171;41.408;2.158;2024-03-23T09:03:39;18.60;99.90
5364;DHT22;77171;41.408;2.158;2024-03-23T09:06:07;18.50;99.90
5364;DHT22;77171;41.408;2.158;2024-03-23T09:08:36;18.50;99.90
5364;DHT22;77171;41.408;2.158;2024-03-23T09:11:07;18.30;99.90
5364;DHT22;77171;41.408;2.158;2024-03-23T09:13:35;18.40;99.90
5364;DHT22;77171;41.408;2.158;2024-03-23T09:16:05;18.50;99.90
5364;DHT22;77171;41.408;2.158;2024-03-23T09:18:36;18.70;99.90
5364;DHT22;77171;41.408;2.158;2024-03-23T09:21:04;18.80;99.90
5364;DHT22;77171;41.408;2.158;2024-03-23T09:23:32;18.90;99.90
5364;DHT22;77171;41.408;2.158;2024-03-23T09:26:03;18.90;99.90
5364;DHT22;77171;41.408;2.158;2024-03-23T09:28:31;19.10;99.90
5364;DHT22;77171;41.408;2.158;2024-03-23T09:31:04;19.30;99.90
5364;DHT22;77171;41.408;2.158;2024-03-23T09:33:32;19.10;99.90
5364;DHT22;77171;41.408;2.158;2024-03-23T09:36:03;19.20;99.90
5364;DHT22;77171;41.408;2.158;2024-03-23T09:38:31;19.10;99.90
5364;DHT22;77171;41.408;2.158;2024-03-23T09:40:58;19.30;99.90
5364;DHT22;77171;41.408;2.158;2024-03-23T09:43:27;19.30;99.90
5364;DHT22;77171;41.408;2.158;2024-03-23T09:45:54;19.40;99.90
5364;DHT22;77171;41.408;2.158;2024-03-23T09:48:23;19.30;99.90
5364;DHT22;77171;41.408;2.158;2024-03-23T09:50:50;19.40;99.90
5364;DHT22;77171;41.408;2.158;2024-03-23T09:53:18;19.50;99.90
5364;DHT22;77171;41.408;2.158;2024-03-23T09:55:45;19.40;99.90
5364;DHT22;77171;41.408;2.158;2024-03-23T09:58:14;19.50;99.90
5364;DHT22;77171;41.408;2.158;2024-03-23T10:00:42;19.40;99.90
5364;DHT22;77171;41.408;2.158;2024-03-23T10:03:10;19.70;99.90
5364;DHT22;77171;41.408;2.158;2024-03-23T10:05:39;19.80;99.90
5364;DHT22;77171;41.408;2.158;2024-03-23T10:08:17;19.70;99.90
5364;DHT22;77171;41.408;2.158;2024-03-23T10:10:46;19.60;99.90
5364;DHT22;77171;41.408;2.158;2024-03-23T10:13:24;19.70;99.90
5364;DHT22;77171;41.408;2.158;2024-03-23T10:15:56;19.60;99.90
5364;DHT22;77171;41.408;2.158;2024-03-23T10:18:25;19.80;99.90
5364;DHT22;77171;41.408;2.158;2024-03-23T10:21:06;20.00;99.90
5364;DHT22;77171;41.408;2.158;2024-03-23T10:23:35;20.00;99.90
5364;DHT22;77171;41.408;2.158;2024-03-23T10:26:24;20.10;99.90
5364;DHT22;77171;41.408;2.158;2024-03-23T10:28:54;20.10;99.90
5364;DHT22;77171;41.408;2.158;2024-03-23T10:31:21;20.10;99.90
5364;DHT22;77171;41.408;2.158;2024-03-23T10:33:49;20.10;99.90
5364;DHT22;77171;41.408;2.158;2024-03-23T10:36:20;20.20;99.90
5364;DHT22;77171;41.408;2.158;2024-03-23T10:38:50;20.10;99.90
5364;DHT22;77171;41.408;2.158;2024-03-23T10:41:17;20.40;99.90
5364;DHT22;77171;41.408;2.158;2024-03-23T10:43:46;20.50;99.90
5364;DHT22;77171;41.408;2.158;2024-03-23T10:46:14;20.50;99.90
5364;DHT22;77171;41.408;2.158;2024-03-23T10:48:44;20.50;99.90
5364;DHT22;77171;41.408;2.158;2024-03-23T10:51:11;20.80;99.90
5364;DHT22;77171;41.408;2.158;2024-03-23T10:53:42;20.70;99.90
5364;DHT22;77171;41.408;2.158;2024-03-23T10:56:10;20.70;99.90
5364;DHT22;77171;41.408;2.158;2024-03-23T10:58:40;20.80;99.90
5364;DHT22;77171;41.408;2.158;2024-03-23T11:01:13;20.80;99.90
5364;DHT22;77171;41.408;2.158;2024-03-23T11:03:45;20.70;99.90
5364;DHT22;77171;41.408;2.158;2024-03-23T11:06:34;20.80;99.90
5364;DHT22;77171;41.408;2.158;2024-03-23T11:09:04;20.70;99.90
5364;DHT22;77171;41.408;2.158;2024-03-23T11:11:51;20.60;99.90
5364;DHT22;77171;41.408;2.158;2024-03-23T11:14:22;20.70;99.90
5364;DHT22;77171;41.408;2.158;2024-03-23T11:17:08;20.90;99.90
5364;DHT22;77171;41.408;2.158;2024-03-23T11:19:37;21.00;99.90
5364;DHT22;77171;41.408;2.158;2024-03-23T11:22:05;21.00;99.90
5364;DHT22;77171;41.408;2.158;2024-03-23T11:24:36;21.00;99.90
5364;DHT22;77171;41.408;2.158;2024-03-23T11:27:15;21.00;99.90
5364;DHT22;77171;41.408;2.158;2024-03-23T11:29:44;21.10;99.90
5364;DHT22;77171;41.408;2.158;2024-03-23T11:32:11;21.00;99.90
5364;DHT22;77171;41.408;2.158;2024-03-23T11:34:40;21.10;99.90
5364;DHT22;77171;41.408;2.158;2024-03-23T11:37:07;21.00;99.90
5364;DHT22;77171;41.408;2.158;2024-03-23T11:39:36;21.00;99.90
5364;DHT22;77171;41.408;2.158;2024-03-23T11:42:04;21.00;99.90
5364;DHT22;77171;41.408;2.158;2024-03-23T11:44:32;21.10;99.90
5364;DHT22;77171;41.408;2.158;2024-03-23T11:47:08;21.20;99.90
5364;DHT22;77171;41.408;2.158;2024-03-23T11:49:37;21.20;99.90
5364;DHT22;77171;41.408;2.158;2024-03-23T11:52:07;21.40;99.90
5364;DHT22;77171;41.408;2.158;2024-03-23T11:54:37;21.50;99.90
5364;DHT22;77171;41.408;2.158;2024-03-23T11:57:06;21.70;99.90
5364;DHT22;77171;41.408;2.158;2024-03-23T11:59:36;21.80;99.90
5364;DHT22;77171;41.408;2.158;2024-03-23T12:02:08;21.80;99.90
5364;DHT22;77171;41.408;2.158;2024-03-23T12:04:37;21.60;99.90
5364;DHT22;77171;41.408;2.158;2024-03-23T12:07:11;21.70;99.90
5364;DHT22;77171;41.408;2.158;2024-03-23T12:09:42;21.80;99.90
5364;DHT22;77171;41.408;2.158;2024-03-23T12:12:11;21.70;99.90
5364;DHT22;77171;41.408;2.158;2024-03-23T12:14:42;21.90;99.90
5364;DHT22;77171;41.408;2.158;2024-03-23T12:17:11;21.90;99.90
5364;DHT22;77171;41.408;2.158;2024-03-23T12:19:39;21.80;99.90
5364;DHT22;77171;41.408;2.158;2024-03-23T12:22:07;21.90;99.90
5364;DHT22;77171;41.408;2.158;2024-03-23T12:24:36;22.00;99.90
5364;DHT22;77171;41.408;2.158;2024-03-23T12:27:05;22.00;99.90
5364;DHT22;77171;41.408;2.158;2024-03-23T12:29:33;21.90;99.90
5364;DHT22;77171;41.408;2.158;2024-03-23T12:32:01;21.80;99.90
5364;DHT22;77171;41.408;2.158;2024-03-23T12:34:30;21.80;99.90
5364;DHT22;77171;41.408;2.158;2024-03-23T12:36:57;21.70;99.90
5364;DHT22;77171;41.408;2.158;2024-03-23T12:39:25;21.70;99.90
5364;DHT22;77171;41.408;2.158;2024-03-23T12:41:52;21.60;99.90
5364;DHT22;77171;41.408;2.158;2024-03-23T12:44:22;21.60;99.90
5364;DHT22;77171;41.408;2.158;2024-03-23T12:46:49;21.80;99.90
5364;DHT22;77171;41.408;2.158;2024-03-23T12:49:17;21.70;99.90
5364;DHT22;77171;41.408;2.158;2024-03-23T12:51:52;21.70;99.90
5364;DHT22;77171;41.408;2.158;2024-03-23T12:54:22;21.80;99.90
5364;DHT22;77171;41.408;2.158;2024-03-23T12:56:49;22.00;99.90
5364;DHT22;77171;41.408;2.158;2024-03-23T12:59:17;22.10;99.90
5364;DHT22;77171;41.408;2.158;2024-03-23T13:01:46;22.20;99.90
5364;DHT22;77171;41.408;2.158;2024-03-23T13:04:14;22.30;99.90
5364;DHT22;77171;41.408;2.158;2024-03-23T13:06:41;22.40;99.90
5364;DHT22;77171;41.408;2.158;2024-03-23T13:09:09;22.40;99.90
5364;DHT22;77171;41.408;2.158;2024-03-23T13:11:37;22.50;99.90
5364;DHT22;77171;41.408;2.158;2024-03-23T13:14:05;22.40;99.90
5364;DHT22;77171;41.408;2.158;2024-03-23T13:16:32;22.30;99.90
5364;DHT22;77171;41.408;2.158;2024-03-23T13:19:02;22.30;99.90
5364;DHT22;77171;41.408;2.158;2024-03-23T13:21:29;22.20;99.90
5364;DHT22;77171;41.408;2.158;2024-03-23T13:23:58;22.20;99.90
5364;DHT22;77171;41.408;2.158;2024-03-23T13:26:25;22.20;99.90
5364;DHT22;77171;41.408;2.158;2024-03-23T13:28:53;21.90;99.90
5364;DHT22;77171;41.408;2.158;2024-03-23T13:31:20;22.00;99.90
5364;DHT22;77171;41.408;2.158;2024-03-23T13:33:48;22.00;99.90
5364;DHT22;77171;41.408;2.158;2024-03-23T13:36:16;22.00;99.90
5364;DHT22;77171;41.408;2.158;2024-03-23T13:38:44;21.90;99.90
5364;DHT22;77171;41.408;2.158;2024-03-23T13:41:11;21.80;99.90
5364;DHT22;77171;41.408;2.158;2024-03-23T13:43:40;21.80;99.90
5364;DHT22;77171;41.408;2.158;2024-03-23T13:46:07;21.70;99.90
5364;DHT22;77171;41.408;2.158;2024-03-23T13:48:35;21.70;99.90
5364;DHT22;77171;41.408;2.158;2024-03-23T13:51:03;21.70;99.90
5364;DHT22;77171;41.408;2.158;2024-03-23T13:53:33;21.70;99.90
5364;DHT22;77171;41.408;2.158;2024-03-23T13:56:00;21.70;99.90
5364;DHT22;77171;41.408;2.158;2024-03-23T13:58:29;21.60;99.90
5364;DHT22;77171;41.408;2.158;2024-03-23T14:00:57;21.60;99.90
5364;DHT22;77171;41.408;2.158;2024-03-23T14:03:25;21.60;99.90
5364;DHT22;77171;41.408;2.158;2024-03-23T14:05:52;21.60;99.90
5364;DHT22;77171;41.408;2.158;2024-03-23T14:08:20;21.60;99.90
5364;DHT22;77171;41.408;2.158;2024-03-23T14:10:49;21.60;99.90
5364;DHT22;77171;41.408;2.158;2024-03-23T14:13:18;21.70;99.90
5364;DHT22;77171;41.408;2.158;2024-03-23T14:15:45;21.70;99.90
5364;DHT22;77171;41.408;2.158;2024-03-23T14:18:13;21.80;99.90
5364;DHT22;77171;41.408;2.158;2024-03-23T14:20:40;21.90;99.90
5364;DHT22;77171;41.408;2.158;2024-03-23T14:23:08;21.80;99.90
5364;DHT22;77171;41.408;2.158;2024-03-23T14:25:35;21.60;99.90
5364;DHT22;77171;41.408;2.158;2024-03-23T14:28:05;21.70;99.90
5364;DHT22;77171;41.408;2.158;2024-03-23T14:30:32;21.80;99.90
5364;DHT22;77171;41.408;2.158;2024-03-23T14:33:00;21.60;99.90
5364;DHT22;77171;41.408;2.158;2024-03-23T14:35:27;21.50;99.90
5364;DHT22;77171;41.408;2.158;2024-03-23T14:37:55;21.70;99.90
5364;DHT22;77171;41.408;2.158;2024-03-23T14:40:22;21.50;99.90
5364;DHT22;77171;41.408;2.158;2024-03-23T14:42:53;21.40;99.90
5364;DHT22;77171;41.408;2.158;2024-03-23T14:45:22;21.90;99.90
5364;DHT22;77171;41.408;2.158;2024-03-23T14:47:50;22.40;99.90
5364;DHT22;77171;41.408;2.158;2024-03-23T14:50:18;22.50;99.90
5364;DHT22;77171;41.408;2.158;2024-03-23T14:52:46;22.70;99.90
5364;DHT22;77171;41.408;2.158;2024-03-23T14:55:13;22.60;99.90
5364;DHT22;77171;41.408;2.158;2024-03-23T14:57:41;22.50;99.90
5364;DHT22;77171;41.408;2.158;2024-03-23T15:00:10;22.50;99.90
5364;DHT22;77171;41.408;2.158;2024-03-23T15:02:40;22.50;99.90
5364;DHT22;77171;41.408;2.158;2024-03-23T15:05:08;22.90;99.90
5364;DHT22;77171;41.408;2.158;2024-03-23T15:07:36;23.00;99.90
5364;DHT22;77171;41.408;2.158;2024-03-23T15:10:06;22.70;99.90
5364;DHT22;77171;41.408;2.158;2024-03-23T15:12:34;22.70;99.90
5364;DHT22;77171;41.408;2.158;2024-03-23T15:15:03;22.90;99.90
5364;DHT22;77171;41.408;2.158;2024-03-23T15:17:31;22.60;99.90
5364;DHT22;77171;41.408;2.158;2024-03-23T15:20:03;22.60;99.90
5364;DHT22;77171;41.408;2.158;2024-03-23T15:22:32;22.70;99.90
5364;DHT22;77171;41.408;2.158;2024-03-23T15:25:01;22.50;99.90
5364;DHT22;77171;41.408;2.158;2024-03-23T15:27:27;22.10;99.90
5364;DHT22;77171;41.408;2.158;2024-03-23T15:29:56;21.70;99.90
5364;DHT22;77171;41.408;2.158;2024-03-23T15:32:24;21.40;99.90
5364;DHT22;77171;41.408;2.158;2024-03-23T15:34:52;21.20;99.90
5364;DHT22;77171;41.408;2.158;2024-03-23T15:37:21;21.40;99.90
5364;DHT22;77171;41.408;2.158;2024-03-23T15:39:49;21.00;99.90
5364;DHT22;77171;41.408;2.158;2024-03-23T15:42:16;20.80;99.90
5364;DHT22;77171;41.408;2.158;2024-03-23T15:44:44;21.00;99.90
5364;DHT22;77171;41.408;2.158;2024-03-23T15:47:12;21.30;99.90
5364;DHT22;77171;41.408;2.158;2024-03-23T15:49:40;20.80;99.90
5364;DHT22;77171;41.408;2.158;2024-03-23T15:52:08;20.70;99.90
5364;DHT22;77171;41.408;2.158;2024-03-23T15:54:39;20.40;99.90
5364;DHT22;77171;41.408;2.158;2024-03-23T15:57:06;20.20;99.90
5364;DHT22;77171;41.408;2.158;2024-03-23T15:59:34;20.20;99.90
5364;DHT22;77171;41.408;2.158;2024-03-23T16:02:03;20.10;99.90
5364;DHT22;77171;41.408;2.158;2024-03-23T16:04:31;20.10;99.90
5364;DHT22;77171;41.408;2.158;2024-03-23T16:06:58;20.10;99.90
5364;DHT22;77171;41.408;2.158;2024-03-23T16:09:26;20.00;99.90
5364;DHT22;77171;41.408;2.158;2024-03-23T16:11:56;19.80;99.90
5364;DHT22;77171;41.408;2.158;2024-03-23T16:14:24;19.80;99.90
5364;DHT22;77171;41.408;2.158;2024-03-23T16:16:51;19.80;99.90
5364;DHT22;77171;41.408;2.158;2024-03-23T16:19:19;19.90;99.90
5364;DHT22;77171;41.408;2.158;2024-03-23T16:21:46;19.80;99.90
5364;DHT22;77171;41.408;2.158;2024-03-23T16:24:14;19.70;99.90
5364;DHT22;77171;41.408;2.158;2024-03-23T16:26:42;19.50;99.90
5364;DHT22;77171;41.408;2.158;2024-03-23T16:29:13;19.40;99.90
5364;DHT22;77171;41.408;2.158;2024-03-23T16:31:41;19.30;99.90
5364;DHT22;77171;41.408;2.158;2024-03-23T16:34:09;19.00;99.90
5364;DHT22;77171;41.408;2.158;2024-03-23T16:36:36;19.00;99.90
5364;DHT22;77171;41.408;2.158;2024-03-23T16:39:04;18.80;99.90
5364;DHT22;77171;41.408;2.158;2024-03-23T16:41:32;19.00;99.90
5364;DHT22;77171;41.408;2.158;2024-03-23T16:44:01;18.90;99.90
5364;DHT22;77171;41.408;2.158;2024-03-23T16:46:30;18.80;99.90